Terminal Aerodrome Forecast
Issued by NWS

Home | Current Version | Previous Version | Text Only | Print | Product List | Glossary On
Versions: 1 2 3 4 5 6 7 8 9 10 11 12 13 14 15 16 17 18
096
FTUS46 KMFR 211125 AAA
TAFRBG
TAF AMD
KRBG 211125Z 2111/2206 35003KT 4SM -RA BR SCT006 BKN015 OVC035
     FM211300 17009G20KT 3SM -RA BR OVC020
     FM212000 20009KT 4SM -RA BKN025 OVC035
     FM212300 30005KT P6SM -SHRA SCT025 BKN050=

USA.gov is the U.S. government's official web portal to all federal, state and local government web resources and services.